createdAt,value
2023-03-21T00:01:41.811Z,42.97
2023-03-21T00:04:12.749Z,40.42
2023-03-21T00:06:43.236Z,42.65
2023-03-21T00:09:15.364Z,41.25
2023-03-21T00:11:46.015Z,38.60
2023-03-21T00:14:19.591Z,42.70
2023-03-21T00:16:52.650Z,48.35
2023-03-21T00:19:27.146Z,37.97
2023-03-21T00:22:07.645Z,42.05
2023-03-21T00:24:40.847Z,43.15
2023-03-21T00:30:10.973Z,44.03
2023-03-21T00:32:55.156Z,44.33
2023-03-21T00:35:54.059Z,43.10
2023-03-21T00:38:17.751Z,53.00
2023-03-21T00:40:52.830Z,47.15
2023-03-21T00:43:24.290Z,38.63
2023-03-21T00:45:55.013Z,45.53
2023-03-21T00:48:25.928Z,46.50
2023-03-21T00:50:59.990Z,46.55
2023-03-21T00:53:32.172Z,37.97
2023-03-21T00:56:04.282Z,43.65
2023-03-21T00:58:34.705Z,45.15
2023-03-21T01:01:05.313Z,44.90
2023-03-21T01:03:43.392Z,51.22
2023-03-21T01:06:14.430Z,49.25
2023-03-21T01:08:52.577Z,46.83
2023-03-21T01:11:27.469Z,40.55
2023-03-21T01:14:10.987Z,43.83
2023-03-21T01:16:49.031Z,49.30
2023-03-21T01:19:29.229Z,41.83
2023-03-21T01:22:01.826Z,46.47
2023-03-21T01:24:32.474Z,40.72
2023-03-21T01:27:07.266Z,56.67
2023-03-21T01:29:37.756Z,45.63
2023-03-21T01:32:08.524Z,42.58
2023-03-21T01:34:38.883Z,45.85
2023-03-21T01:37:09.280Z,45.30
2023-03-21T01:39:39.668Z,44.85
2023-03-21T01:42:15.559Z,44.88
2023-03-21T01:44:58.380Z,48.05
2023-03-21T01:47:29.041Z,52.75
2023-03-21T01:50:02.259Z,48.33
2023-03-21T01:52:38.548Z,47.88
2023-03-21T01:55:14.054Z,45.33
2023-03-21T01:58:04.343Z,49.13
2023-03-21T02:00:37.407Z,45.78
2023-03-21T02:03:18.895Z,36.05
2023-03-21T02:05:58.471Z,41.63
2023-03-21T02:08:38.785Z,39.47
2023-03-21T02:11:10.912Z,42.45
2023-03-21T02:13:43.142Z,38.70
2023-03-21T02:16:21.442Z,40.88
2023-03-21T02:19:01.073Z,39.60
2023-03-21T02:22:17.130Z,35.55
2023-03-21T02:25:21.209Z,37.05
2023-03-21T02:27:58.317Z,38.38
2023-03-21T02:30:52.729Z,45.33
2023-03-21T02:33:50.943Z,38.70
2023-03-21T02:36:39.619Z,35.33
2023-03-21T02:39:18.790Z,44.58
2023-03-21T02:41:53.225Z,40.60
2023-03-21T02:44:29.295Z,32.25
2023-03-21T02:47:06.747Z,39.35
2023-03-21T02:49:43.801Z,39.28
2023-03-21T02:52:31.829Z,41.35
2023-03-21T02:55:14.627Z,33.40
2023-03-21T02:57:47.419Z,35.10
2023-03-21T03:00:22.398Z,39.97
2023-03-21T03:03:06.360Z,33.83
2023-03-21T03:05:43.829Z,43.38
2023-03-21T03:08:41.401Z,40.42
2023-03-21T03:11:29.675Z,38.65
2023-03-21T03:14:46.925Z,34.75
2023-03-21T03:17:20.421Z,29.77
2023-03-21T03:20:15.142Z,33.40
2023-03-21T03:22:55.764Z,32.55
2023-03-21T03:28:18.024Z,30.92
2023-03-21T03:31:07.100Z,43.60
2023-03-21T03:33:41.454Z,35.58
2023-03-21T03:36:30.558Z,36.65
2023-03-21T03:39:05.186Z,34.20
2023-03-21T03:42:04.250Z,36.58
2023-03-21T03:44:33.015Z,38.25
2023-03-21T03:47:08.629Z,34.78
2023-03-21T03:49:44.855Z,35.95
2023-03-21T03:52:21.067Z,35.45
2023-03-21T03:54:53.478Z,38.53
2023-03-21T03:57:24.717Z,37.03
2023-03-21T03:59:56.897Z,34.67
2023-03-21T04:02:27.360Z,38.67
2023-03-21T04:04:58.990Z,37.83
2023-03-21T04:07:29.907Z,38.35
2023-03-21T04:10:00.474Z,43.83
2023-03-21T04:12:31.043Z,32.08
2023-03-21T04:15:10.145Z,29.83
2023-03-21T04:20:18.716Z,37.17
2023-03-21T04:22:55.024Z,36.58
2023-03-21T04:25:33.342Z,37.97
2023-03-21T04:28:05.005Z,36.75
2023-03-21T04:30:37.779Z,36.20
2023-03-21T04:33:09.140Z,39.72
2023-03-21T04:35:39.780Z,34.03
2023-03-21T04:38:10.172Z,39.33
2023-03-21T04:40:40.636Z,31.45
2023-03-21T04:43:11.035Z,37.38
2023-03-21T04:45:43.573Z,34.25
2023-03-21T04:48:15.595Z,31.50
2023-03-21T04:50:46.525Z,29.25
2023-03-21T04:53:17.241Z,31.10
2023-03-21T04:55:48.555Z,32.00
2023-03-21T04:58:21.130Z,30.55
2023-03-21T05:00:53.790Z,26.58
2023-03-21T05:03:24.550Z,30.45
2023-03-21T05:05:55.175Z,31.45
2023-03-21T05:08:25.932Z,28.48
2023-03-21T05:10:56.586Z,25.35
2023-03-21T05:13:27.037Z,27.08
2023-03-21T05:15:59.128Z,28.25
2023-03-21T05:18:31.300Z,28.05
2023-03-21T05:21:01.754Z,26.65
2023-03-21T05:23:32.842Z,26.85
2023-03-21T05:26:03.454Z,31.98
2023-03-21T05:28:37.176Z,21.33
2023-03-21T05:31:10.242Z,30.33
2023-03-21T05:33:40.629Z,24.55
2023-03-21T05:36:12.478Z,29.73
2023-03-21T05:38:46.641Z,30.05
2023-03-21T05:41:19.201Z,24.02
2023-03-21T05:43:50.075Z,26.10
2023-03-21T05:46:22.553Z,26.58
2023-03-21T05:48:53.164Z,25.35
2023-03-21T05:51:23.671Z,24.20
2023-03-21T05:53:54.303Z,22.08
2023-03-21T05:56:24.818Z,26.25
2023-03-21T05:58:55.348Z,24.25
2023-03-21T06:01:27.546Z,21.02
2023-03-21T06:03:57.983Z,19.08
2023-03-21T06:06:28.559Z,20.80
2023-03-21T06:08:58.965Z,22.88
2023-03-21T06:11:32.091Z,25.05
2023-03-21T06:14:02.505Z,21.67
2023-03-21T06:16:34.572Z,22.67
2023-03-21T06:19:05.093Z,25.45
2023-03-21T06:21:35.477Z,20.45
2023-03-21T06:24:06.210Z,21.77
2023-03-21T06:26:37.059Z,20.70
2023-03-21T06:29:07.865Z,16.15
2023-03-21T06:31:40.094Z,16.55
2023-03-21T06:34:11.569Z,17.23
2023-03-21T06:36:42.044Z,18.65
2023-03-21T06:39:12.482Z,19.10
2023-03-21T06:41:42.860Z,18.73
2023-03-21T06:44:13.143Z,16.40
2023-03-21T06:46:45.420Z,16.42
2023-03-21T06:49:16.187Z,17.77
2023-03-21T06:51:46.743Z,19.13
2023-03-21T06:54:18.807Z,18.70
2023-03-21T06:56:49.745Z,20.00
2023-03-21T06:59:20.277Z,18.95
2023-03-21T07:01:52.313Z,16.05
2023-03-21T07:04:23.048Z,15.73
2023-03-21T07:06:53.496Z,16.25
2023-03-21T07:09:25.409Z,13.05
2023-03-21T07:11:56.756Z,18.20
2023-03-21T07:14:27.360Z,19.88
2023-03-21T07:16:59.357Z,18.58
2023-03-21T07:19:29.847Z,15.82
2023-03-21T07:22:01.026Z,14.93
2023-03-21T07:24:31.657Z,17.27
2023-03-21T07:27:02.231Z,22.70
2023-03-21T07:29:32.632Z,19.23
2023-03-21T07:32:04.744Z,17.85
2023-03-21T07:34:35.803Z,15.68
2023-03-21T07:37:07.845Z,16.10
2023-03-21T07:39:39.150Z,19.25
2023-03-21T07:44:45.253Z,15.20
2023-03-21T07:47:17.509Z,15.90
2023-03-21T07:49:48.093Z,20.40
2023-03-21T07:52:18.603Z,20.63
2023-03-21T07:54:50.571Z,21.13
2023-03-21T07:57:21.252Z,21.00
2023-03-21T07:59:51.935Z,26.05
2023-03-21T08:02:28.636Z,21.63
2023-03-21T08:05:08.114Z,18.35
2023-03-21T08:07:41.486Z,19.00
2023-03-21T08:13:17.780Z,26.67
2023-03-21T08:15:48.533Z,25.08
2023-03-21T08:18:25.260Z,23.52
2023-03-21T08:20:57.113Z,24.27
2023-03-21T08:23:28.880Z,27.67
2023-03-21T08:25:59.851Z,30.55
2023-03-21T08:28:32.989Z,28.30
2023-03-21T08:36:45.772Z,28.45
2023-03-21T08:39:22.681Z,32.75
2023-03-21T08:41:53.598Z,22.90
2023-03-21T08:44:26.203Z,29.75
2023-03-21T08:46:57.074Z,22.40
2023-03-21T08:49:35.418Z,27.17
2023-03-21T08:52:09.843Z,24.35
2023-03-21T08:54:42.976Z,30.92
2023-03-21T08:57:13.880Z,29.88
2023-03-21T08:59:44.672Z,31.55
2023-03-21T09:02:17.786Z,27.20
2023-03-21T09:04:55.553Z,25.52
2023-03-21T09:07:27.705Z,31.48
2023-03-21T09:10:19.632Z,32.65
2023-03-21T09:12:52.732Z,31.63
2023-03-21T09:15:25.366Z,23.55
2023-03-21T09:18:00.910Z,31.38
2023-03-21T09:20:36.740Z,29.52
2023-03-21T09:23:09.279Z,28.38
2023-03-21T09:25:41.165Z,24.90
2023-03-21T09:28:14.183Z,24.75
2023-03-21T09:30:45.746Z,30.25
2023-03-21T09:33:22.231Z,25.40
2023-03-21T09:35:55.149Z,35.72
2023-03-21T09:38:31.594Z,27.52
2023-03-21T09:41:19.284Z,28.38
2023-03-21T09:44:04.961Z,28.85
2023-03-21T09:46:48.325Z,23.80
2023-03-21T09:49:26.681Z,23.05
2023-03-21T09:52:04.698Z,26.38
2023-03-21T09:54:40.478Z,26.08
2023-03-21T09:57:24.360Z,29.45
2023-03-21T09:59:59.973Z,29.48
2023-03-21T10:02:41.773Z,26.05
2023-03-21T10:05:20.478Z,25.38
2023-03-21T10:08:01.307Z,24.38
2023-03-21T10:10:35.428Z,23.85
2023-03-21T10:13:07.775Z,26.40
2023-03-21T10:15:39.006Z,25.80
2023-03-21T10:18:17.951Z,25.83
2023-03-21T10:20:48.757Z,26.48
2023-03-21T10:23:25.284Z,26.88
2023-03-21T10:26:00.800Z,26.73
2023-03-21T10:28:49.856Z,28.90
2023-03-21T10:31:26.287Z,23.00
2023-03-21T10:34:07.125Z,26.38
2023-03-21T10:36:41.613Z,23.15
2023-03-21T10:39:28.120Z,24.13
2023-03-21T10:41:58.963Z,22.60
2023-03-21T10:44:33.835Z,24.35
2023-03-21T10:47:09.031Z,24.88
2023-03-21T10:50:06.402Z,28.38
2023-03-21T10:52:40.570Z,25.58
2023-03-21T10:55:22.854Z,30.67
2023-03-21T10:57:59.702Z,27.30
2023-03-21T11:00:32.881Z,26.33
2023-03-21T11:03:04.356Z,25.75
2023-03-21T11:05:39.549Z,29.77
2023-03-21T11:08:15.279Z,24.00
2023-03-21T11:10:56.115Z,23.80
2023-03-21T11:13:29.420Z,28.17
2023-03-21T11:16:01.620Z,34.33
2023-03-21T11:18:35.630Z,32.42
2023-03-21T11:21:11.376Z,26.38
2023-03-21T11:23:51.347Z,31.35
2023-03-21T11:26:45.312Z,28.10
2023-03-21T11:29:57.217Z,26.05
2023-03-21T11:32:33.303Z,27.83
2023-03-21T11:35:06.823Z,34.72
2023-03-21T11:37:50.830Z,23.55
2023-03-21T11:40:30.421Z,24.83
2023-03-21T11:43:12.297Z,19.55
2023-03-21T11:46:06.694Z,27.05
2023-03-21T11:48:49.784Z,23.90
2023-03-21T11:51:29.779Z,22.38
2023-03-21T11:54:13.180Z,20.60
2023-03-21T11:56:50.049Z,22.88
2023-03-21T11:59:39.304Z,19.40
2023-03-21T12:02:29.398Z,23.90
2023-03-21T12:05:05.842Z,19.65
2023-03-21T12:07:51.347Z,23.58
2023-03-21T12:10:37.381Z,20.15
2023-03-21T12:13:23.669Z,22.00
2023-03-21T12:16:09.068Z,21.83
2023-03-21T12:19:11.337Z,20.38
2023-03-21T12:21:52.848Z,22.35
2023-03-21T12:24:26.824Z,20.85
2023-03-21T12:27:05.560Z,24.55
2023-03-21T12:29:50.367Z,19.90
2023-03-21T12:32:35.624Z,22.63
2023-03-21T12:35:29.787Z,21.77
2023-03-21T12:38:18.890Z,18.45
2023-03-21T12:41:06.488Z,38.85
2023-03-21T12:43:48.836Z,32.45
2023-03-21T12:46:25.494Z,47.08
2023-03-21T12:49:28.218Z,71.78
2023-03-21T12:52:05.436Z,84.00
2023-03-21T12:54:45.604Z,103.10
2023-03-21T12:57:22.189Z,47.17
2023-03-21T12:59:58.591Z,77.18
2023-03-21T13:02:35.066Z,47.53
2023-03-21T13:05:19.204Z,55.50
2023-03-21T13:07:54.812Z,53.70
2023-03-21T13:10:28.650Z,53.65
2023-03-21T13:13:11.035Z,42.38
2023-03-21T13:16:02.068Z,45.58
2023-03-21T13:18:47.420Z,51.33
2023-03-21T13:21:28.069Z,47.55
2023-03-21T13:24:20.380Z,43.72
2023-03-21T13:27:05.075Z,39.53
2023-03-21T13:29:45.120Z,44.83
2023-03-21T13:32:25.885Z,36.28
2023-03-21T13:35:00.738Z,35.15
2023-03-21T13:37:36.373Z,37.80
2023-03-21T13:40:13.676Z,34.55
2023-03-21T13:42:49.433Z,33.60
2023-03-21T13:45:33.788Z,34.92
2023-03-21T13:48:08.249Z,32.65
2023-03-21T13:50:59.722Z,37.72
2023-03-21T13:53:38.834Z,31.70
2023-03-21T13:56:24.461Z,40.00
2023-03-21T13:59:01.922Z,35.40
2023-03-21T14:01:42.185Z,34.55
2023-03-21T14:04:18.466Z,31.02
2023-03-21T14:06:53.902Z,44.85
2023-03-21T14:09:31.367Z,45.00
2023-03-21T14:12:07.487Z,40.30
2023-03-21T14:14:42.836Z,32.35
2023-03-21T14:17:18.418Z,40.67
2023-03-21T14:19:48.860Z,31.25
2023-03-21T14:22:19.387Z,31.77
2023-03-21T14:24:59.357Z,32.40
2023-03-21T14:30:04.764Z,33.85
2023-03-21T14:32:35.583Z,30.67
2023-03-21T14:35:14.260Z,34.30
2023-03-21T14:37:47.355Z,36.20
2023-03-21T14:40:28.294Z,38.97
2023-03-21T14:43:06.812Z,32.00
2023-03-21T14:45:39.850Z,28.17
2023-03-21T14:48:20.703Z,37.80
2023-03-21T14:50:52.781Z,26.30
2023-03-21T14:53:27.889Z,31.33
2023-03-21T14:56:04.914Z,25.38
2023-03-21T14:58:42.151Z,28.83
2023-03-21T15:01:18.943Z,28.73
2023-03-21T15:03:50.229Z,30.83
2023-03-21T15:06:20.997Z,36.20
2023-03-21T15:08:58.596Z,29.70
2023-03-21T15:11:39.963Z,33.05
2023-03-21T15:14:18.181Z,32.47
2023-03-21T15:16:49.511Z,33.53
2023-03-21T15:19:22.466Z,35.30
2023-03-21T15:21:59.858Z,31.15
2023-03-21T15:24:32.955Z,35.42
2023-03-21T15:27:09.328Z,36.97
2023-03-21T15:29:42.924Z,37.72
2023-03-21T15:32:21.687Z,35.95
2023-03-21T15:34:57.044Z,46.08
2023-03-21T15:37:30.165Z,37.65
2023-03-21T15:40:19.732Z,33.25
2023-03-21T15:42:51.760Z,33.17
2023-03-21T15:45:25.598Z,34.05
2023-03-21T15:48:04.498Z,31.00
2023-03-21T15:50:40.771Z,36.30
2023-03-21T15:53:18.493Z,29.55
2023-03-21T15:55:53.148Z,35.53
2023-03-21T15:58:27.428Z,46.53
2023-03-21T16:01:04.470Z,44.40
2023-03-21T16:03:38.424Z,40.90
2023-03-21T16:06:21.661Z,41.25
2023-03-21T16:08:54.130Z,33.67
2023-03-21T16:11:29.138Z,29.15
2023-03-21T16:14:01.406Z,28.42
2023-03-21T16:16:33.013Z,30.92
2023-03-21T16:19:08.851Z,28.70
2023-03-21T16:21:40.652Z,29.83
2023-03-21T16:24:17.228Z,29.27
2023-03-21T16:26:51.687Z,30.55
2023-03-21T16:29:23.852Z,30.83
2023-03-21T16:31:54.689Z,37.80
2023-03-21T16:34:25.874Z,30.35
2023-03-21T16:36:56.359Z,39.78
2023-03-21T16:39:29.944Z,39.70
2023-03-21T16:42:03.257Z,34.88
2023-03-21T16:44:36.616Z,38.72
2023-03-21T16:47:07.288Z,36.75
2023-03-21T16:49:39.400Z,40.88
2023-03-21T16:52:13.713Z,37.85
2023-03-21T16:54:45.004Z,44.30
2023-03-21T16:57:29.309Z,37.85
2023-03-21T17:00:01.695Z,42.72
2023-03-21T17:02:35.807Z,39.70
2023-03-21T17:05:09.724Z,39.05
2023-03-21T17:07:40.339Z,48.08
2023-03-21T17:10:19.739Z,46.10
2023-03-21T17:12:51.069Z,41.42
2023-03-21T17:15:23.979Z,41.78
2023-03-21T17:17:57.721Z,41.67
2023-03-21T17:20:32.481Z,42.95
2023-03-21T17:23:03.658Z,45.38
2023-03-21T17:25:37.701Z,44.05
2023-03-21T17:28:08.479Z,46.20
2023-03-21T17:30:41.439Z,38.30
2023-03-21T17:33:12.239Z,45.05
2023-03-21T17:35:42.787Z,44.15
2023-03-21T17:38:18.252Z,39.47
2023-03-21T17:40:52.249Z,45.75
2023-03-21T17:43:31.948Z,46.83
2023-03-21T17:46:06.276Z,34.13
2023-03-21T17:48:41.376Z,37.78
2023-03-21T17:51:16.786Z,38.58
2023-03-21T17:53:48.001Z,42.85
2023-03-21T17:56:20.299Z,45.13
2023-03-21T17:58:50.888Z,47.38
2023-03-21T18:01:24.065Z,51.88
2023-03-21T18:03:55.582Z,59.53
2023-03-21T18:06:28.102Z,104.70
2023-03-21T18:09:01.029Z,176.27
2023-03-21T18:11:31.672Z,143.35
2023-03-21T18:14:15.882Z,153.35
2023-03-21T18:16:51.627Z,181.50
2023-03-21T18:19:23.537Z,270.80
2023-03-21T18:21:58.420Z,136.38
2023-03-21T18:24:30.271Z,212.65
2023-03-21T18:27:00.820Z,116.47
2023-03-21T18:32:24.459Z,166.48
2023-03-21T18:35:14.205Z,206.70
2023-03-21T18:37:59.042Z,112.35
2023-03-21T18:40:29.621Z,188.88
2023-03-21T18:46:03.152Z,188.43
2023-03-21T18:49:19.879Z,174.18
2023-03-21T18:51:51.051Z,310.77
2023-03-21T18:54:24.875Z,181.65
2023-03-21T18:59:47.592Z,167.57
2023-03-21T19:02:28.069Z,272.73
2023-03-21T19:05:05.188Z,242.63
2023-03-21T19:08:08.248Z,146.90
2023-03-21T19:10:44.865Z,320.58
2023-03-21T19:13:15.773Z,118.90
2023-03-21T19:15:49.568Z,175.93
2023-03-21T19:18:41.493Z,203.45
2023-03-21T19:21:12.957Z,150.40
2023-03-21T19:26:39.596Z,108.75
2023-03-21T19:29:16.204Z,161.20
2023-03-21T19:31:47.673Z,85.18
2023-03-21T19:34:18.609Z,101.65
2023-03-21T19:36:52.999Z,50.75
2023-03-21T19:39:24.888Z,64.57
2023-03-21T19:42:38.401Z,127.32
2023-03-21T19:45:10.124Z,145.15
2023-03-21T19:47:47.195Z,207.68
2023-03-21T19:53:10.684Z,266.95
2023-03-21T19:55:41.263Z,197.80
2023-03-21T19:58:17.509Z,68.55
2023-03-21T20:00:48.262Z,84.68
2023-03-21T20:03:20.469Z,104.03
2023-03-21T20:05:51.182Z,152.18
2023-03-21T20:08:23.212Z,51.38
2023-03-21T20:10:54.135Z,74.82
2023-03-21T20:13:24.587Z,72.03
2023-03-21T20:15:56.339Z,235.25
2023-03-21T20:18:27.960Z,151.35
2023-03-21T20:21:00.724Z,196.52
2023-03-21T20:23:35.296Z,164.07
2023-03-21T20:26:11.611Z,167.57
2023-03-21T20:28:56.227Z,112.60
2023-03-21T20:31:33.343Z,97.10
2023-03-21T20:34:03.763Z,62.55
2023-03-21T20:36:40.201Z,47.53
2023-03-21T20:39:13.457Z,38.75
2023-03-21T20:41:43.971Z,48.25
2023-03-21T20:44:44.789Z,76.72
2023-03-21T20:47:06.375Z,151.98
2023-03-21T20:49:36.925Z,152.68
2023-03-21T20:55:01.511Z,166.00
2023-03-21T20:57:32.285Z,172.35
2023-03-21T21:00:02.720Z,123.60
2023-03-21T21:02:33.309Z,144.82
2023-03-21T21:07:59.782Z,119.50
2023-03-21T21:10:33.740Z,235.00
2023-03-21T21:13:05.594Z,149.85
2023-03-21T21:15:36.968Z,184.43
2023-03-21T21:18:08.232Z,176.68
2023-03-21T21:20:40.963Z,209.15
2023-03-21T21:23:13.561Z,187.05
2023-03-21T21:25:45.802Z,294.42
2023-03-21T21:28:16.320Z,260.90
2023-03-21T21:30:46.754Z,295.33
2023-03-21T21:33:18.809Z,130.30
2023-03-21T21:35:49.860Z,174.70
2023-03-21T21:38:21.336Z,247.52
2023-03-21T21:40:54.282Z,149.93
2023-03-21T21:43:24.707Z,146.60
2023-03-21T21:45:55.430Z,155.18
2023-03-21T21:48:26.201Z,172.95
2023-03-21T21:50:56.921Z,135.38
2023-03-21T21:53:28.978Z,168.75
2023-03-21T21:56:04.403Z,129.07
2023-03-21T21:58:39.263Z,78.90
2023-03-21T22:01:09.944Z,105.20
2023-03-21T22:03:42.284Z,125.35
2023-03-21T22:06:12.787Z,137.13
2023-03-21T22:08:48.046Z,129.40
2023-03-21T22:11:20.938Z,116.85
2023-03-21T22:13:51.598Z,130.95
2023-03-21T22:16:22.170Z,148.63
2023-03-21T22:18:52.633Z,125.20
2023-03-21T22:21:23.092Z,78.97
2023-03-21T22:23:53.569Z,51.28
2023-03-21T22:26:25.861Z,64.78
2023-03-21T22:28:56.377Z,79.03
2023-03-21T22:31:27.180Z,79.15
2023-03-21T22:33:57.692Z,71.03
2023-03-21T22:36:28.411Z,74.03
2023-03-21T22:38:58.940Z,72.90
2023-03-21T22:41:30.947Z,51.00
2023-03-21T22:44:01.273Z,62.15
2023-03-21T22:46:32.020Z,54.22
2023-03-21T22:49:02.469Z,48.75
2023-03-21T22:51:32.882Z,49.05
2023-03-21T22:54:03.379Z,52.88
2023-03-21T22:56:35.496Z,50.53
2023-03-21T22:59:05.909Z,49.28
2023-03-21T23:01:36.721Z,76.70
2023-03-21T23:04:07.327Z,73.50
2023-03-21T23:06:38.435Z,64.43
2023-03-21T23:09:10.033Z,91.75
2023-03-21T23:11:43.838Z,37.72
2023-03-21T23:14:15.399Z,57.92
2023-03-21T23:16:47.689Z,39.28
2023-03-21T23:19:18.273Z,37.55
2023-03-21T23:21:48.840Z,34.08
2023-03-21T23:24:19.229Z,41.88
2023-03-21T23:26:51.314Z,32.55
2023-03-21T23:29:21.867Z,36.20
2023-03-21T23:31:52.390Z,35.55
2023-03-21T23:34:22.906Z,34.88
2023-03-21T23:36:53.500Z,33.22
2023-03-21T23:39:23.893Z,31.15
2023-03-21T23:41:55.927Z,35.58
2023-03-21T23:44:26.289Z,33.28
2023-03-21T23:46:57.474Z,38.33
2023-03-21T23:49:27.931Z,31.65
2023-03-21T23:51:58.395Z,32.25
2023-03-21T23:54:28.825Z,32.72
2023-03-21T23:57:00.899Z,34.22
2023-03-21T23:59:31.435Z,30.63
